Airport View

Enter AWOS ICAO identifier for current METAR.

ex. KFNL

KTME 061810Z AUTO 25003G10KT 9SM FEW033 FEW040 33/25 A2994 RMK AO2

6 Jul 2020 18:18

Frequency: 119.525

Phone: 281-945-5451

Other Area AWOS: KIWS - KSGR - KDWH - KELA

TAF KSGR 061732Z 0618/0718 23006KT P6SM FEW045 FM062200 19010KT P6SM VCSH SCT030 BKN250 FM070100 VRB03KT P6SM SCT025 BKN100 FM071600 VRB03KT P6SM VCTS BKN035CB